createdAt,value
2023-01-29T00:01:35.687Z,96.21
2023-01-29T00:04:02.441Z,96.37
2023-01-29T00:06:29.150Z,96.44
2023-01-29T00:08:55.815Z,96.61
2023-01-29T00:11:24.082Z,96.74
2023-01-29T00:13:51.838Z,96.51
2023-01-29T00:16:19.166Z,96.62
2023-01-29T00:18:46.005Z,96.62
2023-01-29T00:21:15.809Z,96.63
2023-01-29T00:23:43.114Z,96.40
2023-01-29T00:26:10.793Z,96.25
2023-01-29T00:28:37.520Z,96.02
2023-01-29T00:31:12.093Z,95.81
2023-01-29T00:33:38.820Z,95.84
2023-01-29T00:36:06.857Z,95.58
2023-01-29T00:38:34.620Z,95.27
2023-01-29T00:41:32.915Z,95.11
2023-01-29T00:44:19.337Z,95.14
2023-01-29T00:46:46.364Z,95.16
2023-01-29T00:49:13.020Z,95.09
2023-01-29T00:51:39.933Z,95.46
2023-01-29T00:54:06.967Z,95.47
2023-01-29T00:56:37.482Z,95.49
2023-01-29T00:59:04.846Z,95.62
2023-01-29T01:01:50.291Z,95.80
2023-01-29T01:04:16.939Z,95.97
2023-01-29T01:06:43.881Z,95.67
2023-01-29T01:09:32.811Z,95.76
2023-01-29T01:12:01.967Z,95.86
2023-01-29T01:14:28.582Z,95.78
2023-01-29T01:16:55.287Z,95.83
2023-01-29T01:19:21.911Z,95.76
2023-01-29T01:21:48.574Z,95.81
2023-01-29T01:24:15.438Z,95.81
2023-01-29T01:26:44.700Z,95.76
2023-01-29T01:29:11.444Z,95.95
2023-01-29T01:31:38.187Z,96.01
2023-01-29T01:34:04.924Z,95.96
2023-01-29T01:36:32.463Z,96.05
2023-01-29T01:38:59.236Z,96.04
2023-01-29T01:41:25.876Z,95.92
2023-01-29T01:43:56.519Z,95.67
2023-01-29T01:46:24.360Z,95.78
2023-01-29T01:48:57.828Z,95.44
2023-01-29T01:51:28.906Z,95.09
2023-01-29T01:54:11.066Z,94.89
2023-01-29T01:56:43.020Z,94.37
2023-01-29T01:59:17.246Z,94.27
2023-01-29T02:01:50.196Z,94.13
2023-01-29T02:04:39.461Z,93.99
2023-01-29T02:07:32.160Z,93.63
2023-01-29T02:10:15.738Z,93.39
2023-01-29T02:12:44.328Z,93.15
2023-01-29T02:15:12.231Z,93.14
2023-01-29T02:17:38.985Z,93.27
2023-01-29T02:20:27.959Z,93.07
2023-01-29T02:22:55.427Z,93.03
2023-01-29T02:25:42.656Z,92.98
2023-01-29T02:28:09.240Z,92.78
2023-01-29T02:30:41.826Z,92.63
2023-01-29T02:33:22.340Z,92.56
2023-01-29T02:36:12.388Z,92.71
2023-01-29T02:39:04.583Z,91.99
2023-01-29T02:41:53.933Z,91.60
2023-01-29T02:44:42.362Z,91.28
2023-01-29T02:47:09.041Z,90.82
2023-01-29T02:49:43.725Z,90.71
2023-01-29T02:52:18.684Z,90.56
2023-01-29T02:54:55.661Z,90.47
2023-01-29T02:57:29.771Z,90.27
2023-01-29T03:00:02.360Z,90.15
2023-01-29T03:02:35.043Z,90.09
2023-01-29T03:05:06.378Z,90.06
2023-01-29T03:07:42.903Z,90.26
2023-01-29T03:10:21.717Z,90.60
2023-01-29T03:12:55.721Z,90.71
2023-01-29T03:15:30.185Z,90.80
2023-01-29T03:18:08.966Z,90.61
2023-01-29T03:20:58.559Z,90.82
2023-01-29T03:23:50.294Z,90.78
2023-01-29T03:26:38.877Z,90.88
2023-01-29T03:29:26.068Z,90.77
2023-01-29T03:32:05.446Z,90.51
2023-01-29T03:34:52.085Z,90.25
2023-01-29T03:37:27.234Z,90.20
2023-01-29T03:39:54.733Z,90.16
2023-01-29T03:42:31.653Z,89.93
2023-01-29T03:45:23.884Z,90.04
2023-01-29T03:47:56.311Z,90.20
2023-01-29T03:50:22.908Z,90.31
2023-01-29T03:52:55.869Z,90.38
2023-01-29T03:55:31.903Z,90.51
2023-01-29T03:58:00.449Z,90.48
2023-01-29T04:00:32.132Z,90.34
2023-01-29T04:03:13.610Z,90.19
2023-01-29T04:05:44.935Z,89.95
2023-01-29T04:08:17.287Z,89.93
2023-01-29T04:10:46.291Z,89.97
2023-01-29T04:13:15.060Z,90.32
2023-01-29T04:15:48.265Z,89.29
2023-01-29T04:18:15.237Z,89.10
2023-01-29T04:20:42.416Z,89.16
2023-01-29T04:23:21.454Z,89.28
2023-01-29T04:26:08.126Z,89.35
2023-01-29T04:28:58.772Z,89.68
2023-01-29T04:31:33.185Z,89.95
2023-01-29T04:34:16.015Z,90.00
2023-01-29T04:37:07.724Z,90.60
2023-01-29T04:39:55.407Z,90.97
2023-01-29T04:42:47.571Z,91.07
2023-01-29T04:45:20.277Z,90.91
2023-01-29T04:48:14.874Z,91.27
2023-01-29T04:51:03.601Z,91.39
2023-01-29T04:53:58.433Z,91.55
2023-01-29T04:57:12.939Z,90.90
2023-01-29T04:59:45.896Z,90.76
2023-01-29T05:02:13.348Z,90.56
2023-01-29T05:04:43.494Z,90.31
2023-01-29T05:07:13.780Z,90.17
2023-01-29T05:09:44.120Z,90.24
2023-01-29T05:12:12.966Z,90.45
2023-01-29T05:14:43.433Z,90.60
2023-01-29T05:17:15.846Z,90.62
2023-01-29T05:19:42.682Z,90.87
2023-01-29T05:22:12.545Z,90.93
2023-01-29T05:24:39.170Z,91.17
2023-01-29T05:27:24.430Z,90.99
2023-01-29T05:29:51.061Z,91.11
2023-01-29T05:32:17.791Z,91.26
2023-01-29T05:34:44.372Z,91.32
2023-01-29T05:37:10.994Z,91.32
2023-01-29T05:39:37.633Z,91.45
2023-01-29T05:42:04.437Z,91.33
2023-01-29T05:44:31.120Z,91.13
2023-01-29T05:46:57.760Z,91.52
2023-01-29T05:49:24.477Z,91.61
2023-01-29T05:51:51.131Z,91.62
2023-01-29T05:54:17.752Z,91.61
2023-01-29T05:56:44.395Z,91.79
2023-01-29T05:59:12.132Z,91.77
2023-01-29T06:01:38.828Z,91.73
2023-01-29T06:04:05.422Z,91.82
2023-01-29T06:06:32.053Z,91.57
2023-01-29T06:08:58.619Z,91.52
2023-01-29T06:11:25.627Z,91.44
2023-01-29T06:13:52.293Z,91.43
2023-01-29T06:16:19.183Z,91.33
2023-01-29T06:18:45.813Z,90.90
2023-01-29T06:21:13.697Z,90.75
2023-01-29T06:23:40.788Z,90.88
2023-01-29T06:26:11.532Z,90.91
2023-01-29T06:28:38.608Z,90.59
2023-01-29T06:33:53.228Z,90.38
2023-01-29T06:36:19.907Z,90.39
2023-01-29T06:38:47.389Z,90.67
2023-01-29T06:41:18.187Z,90.62
2023-01-29T06:43:45.944Z,90.27
2023-01-29T06:46:12.796Z,90.05
2023-01-29T06:48:39.875Z,89.94
2023-01-29T06:51:11.020Z,90.04
2023-01-29T06:53:38.710Z,90.36
2023-01-29T06:56:06.448Z,90.20
2023-01-29T06:58:33.175Z,89.64
2023-01-29T07:01:08.275Z,89.40
2023-01-29T07:03:34.979Z,89.20
2023-01-29T07:06:02.393Z,89.06
2023-01-29T07:08:29.132Z,89.28
2023-01-29T07:11:01.091Z,89.58
2023-01-29T07:13:28.075Z,89.49
2023-01-29T07:15:54.873Z,89.34
2023-01-29T07:18:21.578Z,88.71
2023-01-29T07:20:48.186Z,88.08
2023-01-29T07:23:15.741Z,88.22
2023-01-29T07:25:42.483Z,88.28
2023-01-29T07:28:09.548Z,88.64
2023-01-29T07:30:36.759Z,88.49
2023-01-29T07:33:07.439Z,88.54
2023-01-29T07:35:39.688Z,88.46
2023-01-29T07:38:08.410Z,88.19
2023-01-29T07:40:35.333Z,88.27
2023-01-29T07:43:04.514Z,87.86
2023-01-29T07:45:31.726Z,88.38
2023-01-29T07:47:58.385Z,88.27
2023-01-29T07:50:27.098Z,87.74
2023-01-29T07:52:57.102Z,87.86
2023-01-29T07:55:24.312Z,87.25
2023-01-29T07:58:02.071Z,86.69
2023-01-29T08:00:30.225Z,87.18
2023-01-29T08:03:09.578Z,87.28
2023-01-29T08:05:36.779Z,87.45
2023-01-29T08:08:07.527Z,87.24
2023-01-29T08:10:36.249Z,86.91
2023-01-29T08:13:03.801Z,86.67
2023-01-29T08:15:30.534Z,86.33
2023-01-29T08:20:43.905Z,86.23
2023-01-29T08:23:14.852Z,86.08
2023-01-29T08:25:41.708Z,85.87
2023-01-29T08:28:08.818Z,85.59
2023-01-29T08:30:37.606Z,85.71
2023-01-29T08:33:07.545Z,85.96
2023-01-29T08:35:34.259Z,85.00
2023-01-29T08:38:03.534Z,85.66
2023-01-29T08:40:34.435Z,86.01
2023-01-29T08:43:09.655Z,85.61
2023-01-29T08:45:40.371Z,85.82
2023-01-29T08:48:07.621Z,85.65
2023-01-29T08:50:35.138Z,85.25
2023-01-29T08:53:09.675Z,85.24
2023-01-29T08:55:37.561Z,84.97
2023-01-29T08:58:05.964Z,85.03
2023-01-29T09:00:34.116Z,84.37
2023-01-29T09:03:04.006Z,84.38
2023-01-29T09:05:31.277Z,84.09
2023-01-29T09:07:58.363Z,84.34
2023-01-29T09:10:25.646Z,84.20
2023-01-29T09:12:52.248Z,84.39
2023-01-29T09:15:19.457Z,84.27
2023-01-29T09:17:46.120Z,84.17
2023-01-29T09:20:15.763Z,84.11
2023-01-29T09:22:42.446Z,83.97
2023-01-29T09:25:10.877Z,84.01
2023-01-29T09:27:41.007Z,83.94
2023-01-29T09:30:10.338Z,83.75
2023-01-29T09:32:52.777Z,83.27
2023-01-29T09:35:22.058Z,83.13
2023-01-29T09:37:52.866Z,83.29
2023-01-29T09:40:43.760Z,83.06
2023-01-29T09:43:45.741Z,82.03
2023-01-29T09:46:20.686Z,81.85
2023-01-29T09:48:50.480Z,81.62
2023-01-29T09:51:31.674Z,80.73
2023-01-29T09:54:07.874Z,80.08
2023-01-29T09:56:44.722Z,79.42
2023-01-29T09:59:14.408Z,79.31
2023-01-29T10:02:06.386Z,78.90
2023-01-29T10:04:39.311Z,78.81
2023-01-29T10:07:11.728Z,79.11
2023-01-29T10:09:59.842Z,78.86
2023-01-29T10:13:00.145Z,78.32
2023-01-29T10:15:53.111Z,77.89
2023-01-29T10:18:32.040Z,77.94
2023-01-29T10:21:17.142Z,78.15
2023-01-29T10:24:13.376Z,78.28
2023-01-29T10:26:40.944Z,78.28
2023-01-29T10:29:08.335Z,78.17
2023-01-29T10:31:40.350Z,78.18
2023-01-29T10:34:16.175Z,78.06
2023-01-29T10:36:47.030Z,77.95
2023-01-29T10:39:22.075Z,77.87
2023-01-29T10:42:06.856Z,77.33
2023-01-29T10:44:42.509Z,77.02
2023-01-29T10:47:25.052Z,76.00
2023-01-29T10:50:25.671Z,75.57
2023-01-29T10:53:35.910Z,75.27
2023-01-29T10:56:25.025Z,75.00
2023-01-29T10:59:33.469Z,75.13
2023-01-29T11:02:00.567Z,74.75
2023-01-29T11:04:28.878Z,74.59
2023-01-29T11:06:59.452Z,74.58
2023-01-29T11:09:39.405Z,74.72
2023-01-29T11:12:09.811Z,74.28
2023-01-29T11:14:47.661Z,74.44
2023-01-29T11:17:23.493Z,74.66
2023-01-29T11:19:52.143Z,75.01
2023-01-29T11:22:21.892Z,74.52
2023-01-29T11:25:10.561Z,74.30
2023-01-29T11:27:57.228Z,74.67
2023-01-29T11:30:27.938Z,74.72
2023-01-29T11:33:18.588Z,74.64
2023-01-29T11:35:45.537Z,74.78
2023-01-29T11:38:33.571Z,74.97
2023-01-29T11:41:19.143Z,74.89
2023-01-29T11:43:45.780Z,75.05
2023-01-29T11:46:17.864Z,75.45
2023-01-29T11:48:51.689Z,75.14
2023-01-29T11:51:25.691Z,75.21
2023-01-29T11:53:58.633Z,75.76
2023-01-29T11:56:41.126Z,75.70
2023-01-29T11:59:30.403Z,75.42
2023-01-29T12:02:22.627Z,75.00
2023-01-29T12:04:51.018Z,75.04
2023-01-29T12:07:19.165Z,75.38
2023-01-29T12:09:52.807Z,75.49
2023-01-29T12:12:30.237Z,75.54
2023-01-29T12:15:05.272Z,75.32
2023-01-29T12:17:37.616Z,75.16
2023-01-29T12:20:13.234Z,75.52
2023-01-29T12:22:56.434Z,75.32
2023-01-29T12:25:40.918Z,75.50
2023-01-29T12:28:28.780Z,75.90
2023-01-29T12:31:13.751Z,76.07
2023-01-29T12:34:20.140Z,75.51
2023-01-29T12:37:03.391Z,75.71
2023-01-29T12:39:35.327Z,76.39
2023-01-29T12:42:09.287Z,76.46
2023-01-29T12:44:45.157Z,76.09
2023-01-29T12:47:36.643Z,76.62
2023-01-29T12:50:26.486Z,76.22
2023-01-29T12:52:56.316Z,76.57
2023-01-29T12:55:28.080Z,76.71
2023-01-29T12:58:00.798Z,76.27
2023-01-29T13:00:33.674Z,76.66
2023-01-29T13:03:18.069Z,76.68
2023-01-29T13:05:54.465Z,77.25
2023-01-29T13:08:44.673Z,77.64
2023-01-29T13:11:19.276Z,77.50
2023-01-29T13:13:58.280Z,77.50
2023-01-29T13:16:37.621Z,78.00
2023-01-29T13:19:14.231Z,78.39
2023-01-29T13:21:43.926Z,78.48
2023-01-29T13:24:15.944Z,78.84
2023-01-29T13:26:47.204Z,78.64
2023-01-29T13:29:30.888Z,78.40
2023-01-29T13:32:01.071Z,78.46
2023-01-29T13:34:38.505Z,78.74
2023-01-29T13:37:16.921Z,79.13
2023-01-29T13:39:53.438Z,78.72
2023-01-29T13:42:24.099Z,79.09
2023-01-29T13:44:54.414Z,79.59
2023-01-29T13:47:31.900Z,79.59
2023-01-29T13:50:20.161Z,79.89
2023-01-29T13:53:02.276Z,80.01
2023-01-29T13:55:33.635Z,80.27
2023-01-29T13:58:09.707Z,80.50
2023-01-29T14:00:36.356Z,80.21
2023-01-29T14:03:11.937Z,80.07
2023-01-29T14:05:43.521Z,80.11
2023-01-29T14:08:10.138Z,80.53
2023-01-29T14:10:38.352Z,80.83
2023-01-29T14:13:04.976Z,80.59
2023-01-29T14:15:34.683Z,80.37
2023-01-29T14:18:22.367Z,80.88
2023-01-29T14:20:48.926Z,81.02
2023-01-29T14:23:28.683Z,81.27
2023-01-29T14:25:56.601Z,81.42
2023-01-29T14:28:27.008Z,81.42
2023-01-29T14:30:55.255Z,81.40
2023-01-29T14:33:38.154Z,81.88
2023-01-29T14:36:10.860Z,81.62
2023-01-29T14:38:38.835Z,81.98
2023-01-29T14:41:24.569Z,81.74
2023-01-29T14:43:51.196Z,81.68
2023-01-29T14:46:35.955Z,82.02
2023-01-29T14:49:03.233Z,82.13
2023-01-29T14:51:36.844Z,82.54
2023-01-29T14:54:18.863Z,82.66
2023-01-29T14:56:59.660Z,82.58
2023-01-29T14:59:46.573Z,82.40
2023-01-29T15:02:27.136Z,82.34
2023-01-29T15:04:58.843Z,82.66
2023-01-29T15:07:32.024Z,82.84
2023-01-29T15:10:22.884Z,82.98
2023-01-29T15:13:03.049Z,82.43
2023-01-29T15:15:57.111Z,82.74
2023-01-29T15:18:29.683Z,83.01
2023-01-29T15:21:05.914Z,83.21
2023-01-29T15:23:34.524Z,83.21
2023-01-29T15:26:27.012Z,83.42
2023-01-29T15:29:04.109Z,83.59
2023-01-29T15:31:31.972Z,83.54
2023-01-29T15:34:05.018Z,83.29
2023-01-29T15:36:32.462Z,83.39
2023-01-29T15:39:20.175Z,83.53
2023-01-29T15:41:47.336Z,82.74
2023-01-29T15:44:20.410Z,83.07
2023-01-29T15:46:57.035Z,83.16
2023-01-29T15:49:34.061Z,83.12
2023-01-29T15:52:05.001Z,83.42
2023-01-29T15:54:33.732Z,83.52
2023-01-29T15:57:01.956Z,83.63
2023-01-29T15:59:36.957Z,83.84
2023-01-29T16:02:40.228Z,84.34
2023-01-29T16:05:15.789Z,84.16
2023-01-29T16:07:43.607Z,84.55
2023-01-29T16:10:28.728Z,84.58
2023-01-29T16:12:56.392Z,84.65
2023-01-29T16:15:38.005Z,84.82
2023-01-29T16:18:21.233Z,84.94
2023-01-29T16:20:52.574Z,85.05
2023-01-29T16:23:36.940Z,85.34
2023-01-29T16:26:08.446Z,85.43
2023-01-29T16:28:42.882Z,85.59
2023-01-29T16:31:12.079Z,85.76
2023-01-29T16:33:41.898Z,86.10
2023-01-29T16:36:16.822Z,86.32
2023-01-29T16:38:47.871Z,86.66
2023-01-29T16:41:28.926Z,87.04
2023-01-29T16:44:01.205Z,87.20
2023-01-29T16:46:34.089Z,87.29
2023-01-29T16:49:01.849Z,87.08
2023-01-29T16:51:37.700Z,87.46
2023-01-29T16:54:24.189Z,87.32
2023-01-29T16:57:00.524Z,87.03
2023-01-29T16:59:37.907Z,86.91
2023-01-29T17:02:16.587Z,86.75
2023-01-29T17:04:43.225Z,86.88
2023-01-29T17:07:24.095Z,86.72
2023-01-29T17:09:57.293Z,86.44
2023-01-29T17:12:26.761Z,86.14
2023-01-29T17:14:56.558Z,85.88
2023-01-29T17:17:30.501Z,85.50
2023-01-29T17:19:58.945Z,85.60
2023-01-29T17:22:25.644Z,85.65
2023-01-29T17:24:52.356Z,85.64
2023-01-29T17:27:21.499Z,85.61
2023-01-29T17:29:48.635Z,85.58
2023-01-29T17:32:19.883Z,85.57
2023-01-29T17:34:47.149Z,85.81
2023-01-29T17:37:15.659Z,85.99
2023-01-29T17:39:50.485Z,86.08
2023-01-29T17:42:17.273Z,85.73
2023-01-29T17:44:43.897Z,85.49
2023-01-29T17:47:15.102Z,85.25
2023-01-29T17:49:42.700Z,85.17
2023-01-29T17:52:09.771Z,85.09
2023-01-29T17:54:36.759Z,85.28
2023-01-29T17:57:03.458Z,85.47
2023-01-29T17:59:33.147Z,85.18
2023-01-29T18:01:59.945Z,85.05
2023-01-29T18:04:26.769Z,85.15
2023-01-29T18:06:57.748Z,85.68
2023-01-29T18:09:24.748Z,85.44
2023-01-29T18:11:51.645Z,85.50
2023-01-29T18:14:18.425Z,85.22
2023-01-29T18:16:45.865Z,84.91
2023-01-29T18:19:15.617Z,85.38
2023-01-29T18:21:42.448Z,85.48
2023-01-29T18:24:09.183Z,85.42
2023-01-29T18:26:36.188Z,85.34
2023-01-29T18:29:04.061Z,85.09
2023-01-29T18:31:32.805Z,85.48
2023-01-29T18:33:59.721Z,85.20
2023-01-29T18:36:26.319Z,85.27
2023-01-29T18:38:53.024Z,84.93
2023-01-29T18:41:19.745Z,85.17
2023-01-29T18:43:46.598Z,84.15
2023-01-29T18:46:13.344Z,84.07
2023-01-29T18:48:41.741Z,84.32
2023-01-29T18:51:09.463Z,84.29
2023-01-29T18:53:36.145Z,84.12
2023-01-29T18:56:05.564Z,83.74
2023-01-29T18:58:35.899Z,83.53
2023-01-29T19:01:09.531Z,83.78
2023-01-29T19:03:37.224Z,84.05
2023-01-29T19:06:05.647Z,84.07
2023-01-29T19:08:32.613Z,84.09
2023-01-29T19:11:02.497Z,83.57
2023-01-29T19:13:30.220Z,83.63
2023-01-29T19:15:56.914Z,83.51
2023-01-29T19:18:25.989Z,83.18
2023-01-29T19:20:53.334Z,82.45
2023-01-29T19:23:20.847Z,82.32
2023-01-29T19:25:47.967Z,82.15
2023-01-29T19:28:18.201Z,82.17
2023-01-29T19:30:44.917Z,82.01
2023-01-29T19:33:11.735Z,82.12
2023-01-29T19:35:47.307Z,82.05
2023-01-29T19:38:18.836Z,82.26
2023-01-29T19:40:45.496Z,82.11
2023-01-29T19:43:16.096Z,82.28
2023-01-29T19:45:49.597Z,82.47
2023-01-29T19:48:22.931Z,81.87
2023-01-29T19:50:58.139Z,81.56
2023-01-29T19:53:27.275Z,81.57
2023-01-29T19:56:10.868Z,81.50
2023-01-29T19:58:38.220Z,81.59
2023-01-29T20:01:07.840Z,81.58
2023-01-29T20:03:34.636Z,81.71
2023-01-29T20:06:05.648Z,81.77
2023-01-29T20:08:33.778Z,81.50
2023-01-29T20:11:00.673Z,81.31
2023-01-29T20:13:28.370Z,81.27
2023-01-29T20:15:55.701Z,81.19
2023-01-29T20:18:22.352Z,81.42
2023-01-29T20:20:50.629Z,81.35
2023-01-29T20:23:35.299Z,81.22
2023-01-29T20:26:04.801Z,81.27
2023-01-29T20:28:31.378Z,81.23
2023-01-29T20:30:59.088Z,81.06
2023-01-29T20:33:26.760Z,81.09
2023-01-29T20:35:58.228Z,81.09
2023-01-29T20:38:30.303Z,81.09
2023-01-29T20:41:29.526Z,80.79
2023-01-29T20:43:56.197Z,80.89
2023-01-29T20:46:22.869Z,80.94
2023-01-29T20:48:53.185Z,81.24
2023-01-29T20:51:20.172Z,81.32
2023-01-29T20:53:48.053Z,81.36
2023-01-29T20:56:16.227Z,81.24
2023-01-29T20:58:43.178Z,81.04
2023-01-29T21:01:12.956Z,81.15
2023-01-29T21:03:40.366Z,81.08
2023-01-29T21:06:11.459Z,81.11
2023-01-29T21:08:39.102Z,81.43
2023-01-29T21:11:07.860Z,81.64
2023-01-29T21:13:35.247Z,81.93
2023-01-29T21:16:02.428Z,81.91
2023-01-29T21:18:29.512Z,82.25
2023-01-29T21:20:56.491Z,82.61
2023-01-29T21:23:23.208Z,82.97
2023-01-29T21:25:49.835Z,82.90
2023-01-29T21:28:16.514Z,83.01
2023-01-29T21:30:43.241Z,83.15
2023-01-29T21:33:09.907Z,83.34
2023-01-29T21:35:37.924Z,83.24
2023-01-29T21:38:05.010Z,83.46
2023-01-29T21:40:31.996Z,83.71
2023-01-29T21:43:15.445Z,83.56
2023-01-29T21:45:43.019Z,83.59
2023-01-29T21:48:11.600Z,83.60
2023-01-29T21:50:38.732Z,83.90
2023-01-29T21:53:05.431Z,83.98
2023-01-29T21:55:32.865Z,84.09
2023-01-29T21:58:00.379Z,84.15
2023-01-29T22:00:27.444Z,83.79
2023-01-29T22:02:54.220Z,83.96
2023-01-29T22:05:22.255Z,83.57
2023-01-29T22:07:49.962Z,83.62
2023-01-29T22:10:18.280Z,83.50
2023-01-29T22:12:45.405Z,83.64
2023-01-29T22:15:13.156Z,83.53
2023-01-29T22:17:41.450Z,83.77
2023-01-29T22:20:12.622Z,84.13
2023-01-29T22:22:39.354Z,83.46
2023-01-29T22:25:06.382Z,83.63
2023-01-29T22:27:33.923Z,83.51
2023-01-29T22:30:00.883Z,83.54
2023-01-29T22:32:27.621Z,83.62
2023-01-29T22:34:54.304Z,83.85
2023-01-29T22:37:20.968Z,83.90
2023-01-29T22:39:47.649Z,83.27
2023-01-29T22:42:14.371Z,83.44
2023-01-29T22:44:41.455Z,82.86
2023-01-29T22:47:08.088Z,82.76
2023-01-29T22:49:34.772Z,82.86
2023-01-29T22:52:10.334Z,83.08
2023-01-29T22:54:42.313Z,82.99
2023-01-29T22:57:11.575Z,82.49
2023-01-29T22:59:38.575Z,82.11
2023-01-29T23:02:06.070Z,82.29
2023-01-29T23:04:32.828Z,82.18
2023-01-29T23:06:59.681Z,82.32
2023-01-29T23:09:27.130Z,82.14
2023-01-29T23:11:53.772Z,81.95
2023-01-29T23:14:20.488Z,81.72
2023-01-29T23:16:47.100Z,81.05
2023-01-29T23:19:13.900Z,81.75
2023-01-29T23:21:43.711Z,81.47
2023-01-29T23:24:10.778Z,81.59
2023-01-29T23:26:56.086Z,81.09
2023-01-29T23:29:23.078Z,80.75
2023-01-29T23:31:49.921Z,81.04
2023-01-29T23:34:16.735Z,81.28
2023-01-29T23:36:43.537Z,81.54
2023-01-29T23:39:10.536Z,81.66
2023-01-29T23:41:37.164Z,81.28
2023-01-29T23:44:04.761Z,81.23
2023-01-29T23:46:31.670Z,81.29
2023-01-29T23:48:58.442Z,80.98
2023-01-29T23:51:25.221Z,80.96
2023-01-29T23:53:51.877Z,81.25
2023-01-29T23:56:18.601Z,81.51
2023-01-29T23:58:45.815Z,81.38
